sensor_id;sensor_type;location;lat;lon;timestamp;pressure;altitude;pressure_sealevel;temperature;humidity
17230;BME280;8731;50.364;8.958;2022-08-25T00:03:53;100204.81;;;24.41;48.58
17230;BME280;8731;50.364;8.958;2022-08-25T00:08:16;100209.91;;;24.38;48.60
17230;BME280;8731;50.364;8.958;2022-08-25T00:12:39;100208.50;;;24.25;49.62
17230;BME280;8731;50.364;8.958;2022-08-25T00:17:02;100204.06;;;24.23;49.89
17230;BME280;8731;50.364;8.958;2022-08-25T00:21:26;100199.53;;;24.17;50.81
17230;BME280;8731;50.364;8.958;2022-08-25T00:25:50;100203.47;;;24.07;51.75
17230;BME280;8731;50.364;8.958;2022-08-25T00:30:16;100204.31;;;24.06;50.67
17230;BME280;8731;50.364;8.958;2022-08-25T00:34:38;100203.28;;;24.03;50.95
17230;BME280;8731;50.364;8.958;2022-08-25T00:39:01;100202.25;;;23.98;50.77
17230;BME280;8731;50.364;8.958;2022-08-25T00:43:25;100201.13;;;23.91;51.78
17230;BME280;8731;50.364;8.958;2022-08-25T00:47:48;100203.63;;;23.67;52.52
17230;BME280;8731;50.364;8.958;2022-08-25T00:52:13;100211.28;;;23.64;52.56
17230;BME280;8731;50.364;8.958;2022-08-25T00:56:38;100205.31;;;23.46;53.78
17230;BME280;8731;50.364;8.958;2022-08-25T01:01:01;100207.56;;;23.38;53.42
17230;BME280;8731;50.364;8.958;2022-08-25T01:05:26;100208.72;;;23.24;53.85
17230;BME280;8731;50.364;8.958;2022-08-25T01:09:50;100206.88;;;23.21;52.94
17230;BME280;8731;50.364;8.958;2022-08-25T01:14:15;100214.13;;;23.09;54.22
17230;BME280;8731;50.364;8.958;2022-08-25T01:18:45;100211.69;;;22.93;54.25
17230;BME280;8731;50.364;8.958;2022-08-25T01:23:12;100214.13;;;22.90;54.65
17230;BME280;8731;50.364;8.958;2022-08-25T01:27:34;100213.81;;;22.82;54.76
17230;BME280;8731;50.364;8.958;2022-08-25T01:31:58;100215.75;;;22.68;55.15
17230;BME280;8731;50.364;8.958;2022-08-25T01:36:24;100218.63;;;22.55;55.87
17230;BME280;8731;50.364;8.958;2022-08-25T01:40:49;100221.66;;;22.47;55.76
17230;BME280;8731;50.364;8.958;2022-08-25T01:45:12;100216.16;;;22.39;54.86
17230;BME280;8731;50.364;8.958;2022-08-25T01:49:35;100222.09;;;22.19;56.46
17230;BME280;8731;50.364;8.958;2022-08-25T01:53:57;100223.47;;;22.11;56.84
17230;BME280;8731;50.364;8.958;2022-08-25T01:58:23;100228.44;;;22.06;56.90
17230;BME280;8731;50.364;8.958;2022-08-25T02:02:47;100222.63;;;21.94;56.76
17230;BME280;8731;50.364;8.958;2022-08-25T02:07:10;100222.25;;;21.86;56.86
17230;BME280;8731;50.364;8.958;2022-08-25T02:11:32;100236.03;;;21.85;56.99
17230;BME280;8731;50.364;8.958;2022-08-25T02:15:59;100225.66;;;21.67;58.16
17230;BME280;8731;50.364;8.958;2022-08-25T02:20:23;100219.72;;;21.70;57.17
17230;BME280;8731;50.364;8.958;2022-08-25T02:24:45;100219.84;;;21.37;59.11
17230;BME280;8731;50.364;8.958;2022-08-25T02:29:08;100216.50;;;21.40;59.16
17230;BME280;8731;50.364;8.958;2022-08-25T02:33:32;100216.44;;;21.38;59.12
17230;BME280;8731;50.364;8.958;2022-08-25T02:37:54;100209.25;;;21.33;59.61
17230;BME280;8731;50.364;8.958;2022-08-25T02:42:17;100215.97;;;21.13;60.04
17230;BME280;8731;50.364;8.958;2022-08-25T02:46:41;100218.25;;;21.07;60.40
17230;BME280;8731;50.364;8.958;2022-08-25T02:51:07;100219.69;;;21.02;60.99
17230;BME280;8731;50.364;8.958;2022-08-25T02:55:31;100214.41;;;20.66;62.48
17230;BME280;8731;50.364;8.958;2022-08-25T02:59:53;100227.50;;;20.86;60.55
17230;BME280;8731;50.364;8.958;2022-08-25T03:04:17;100218.44;;;20.77;60.34
17230;BME280;8731;50.364;8.958;2022-08-25T03:08:42;100217.16;;;20.69;60.92
17230;BME280;8731;50.364;8.958;2022-08-25T03:13:04;100216.41;;;20.56;61.67
17230;BME280;8731;50.364;8.958;2022-08-25T03:17:27;100215.34;;;20.52;61.65
17230;BME280;8731;50.364;8.958;2022-08-25T03:21:49;100214.59;;;20.38;63.22
17230;BME280;8731;50.364;8.958;2022-08-25T03:26:16;100210.91;;;20.18;65.19
17230;BME280;8731;50.364;8.958;2022-08-25T03:30:56;100206.75;;;19.75;67.47
17230;BME280;8731;50.364;8.958;2022-08-25T03:35:19;100196.41;;;19.75;66.52
17230;BME280;8731;50.364;8.958;2022-08-25T03:39:42;100192.13;;;19.75;65.46
17230;BME280;8731;50.364;8.958;2022-08-25T03:44:07;100188.75;;;19.76;64.71
17230;BME280;8731;50.364;8.958;2022-08-25T03:48:30;100195.59;;;19.76;64.70
17230;BME280;8731;50.364;8.958;2022-08-25T03:52:54;100198.56;;;19.67;64.51
17230;BME280;8731;50.364;8.958;2022-08-25T03:57:17;100194.56;;;19.57;65.34
17230;BME280;8731;50.364;8.958;2022-08-25T04:01:42;100193.50;;;19.54;64.89
17230;BME280;8731;50.364;8.958;2022-08-25T04:06:07;100193.28;;;19.51;64.90
17230;BME280;8731;50.364;8.958;2022-08-25T04:10:29;100195.69;;;19.48;65.01
17230;BME280;8731;50.364;8.958;2022-08-25T04:14:52;100198.91;;;19.44;65.61
17230;BME280;8731;50.364;8.958;2022-08-25T04:19:16;100202.81;;;19.37;65.86
17230;BME280;8731;50.364;8.958;2022-08-25T04:23:41;100197.56;;;19.21;68.42
17230;BME280;8731;50.364;8.958;2022-08-25T04:28:04;100196.03;;;18.95;69.93
17230;BME280;8731;50.364;8.958;2022-08-25T04:32:26;100192.22;;;19.18;67.80
17230;BME280;8731;50.364;8.958;2022-08-25T04:36:52;100174.50;;;19.24;67.10
17230;BME280;8731;50.364;8.958;2022-08-25T04:41:18;100183.69;;;19.19;68.26
17230;BME280;8731;50.364;8.958;2022-08-25T04:45:43;100186.16;;;19.02;69.08
17230;BME280;8731;50.364;8.958;2022-08-25T04:50:06;100188.00;;;18.90;68.15
17230;BME280;8731;50.364;8.958;2022-08-25T04:54:31;100182.75;;;18.89;70.36
17230;BME280;8731;50.364;8.958;2022-08-25T04:58:54;100190.97;;;18.96;69.67
17230;BME280;8731;50.364;8.958;2022-08-25T05:03:17;100197.47;;;19.05;69.56
17230;BME280;8731;50.364;8.958;2022-08-25T05:07:39;100198.72;;;18.96;71.04
17230;BME280;8731;50.364;8.958;2022-08-25T05:12:04;100202.97;;;18.96;71.40
17230;BME280;8731;50.364;8.958;2022-08-25T05:16:27;100199.50;;;18.95;72.28
17230;BME280;8731;50.364;8.958;2022-08-25T05:20:50;100208.06;;;19.09;70.32
17230;BME280;8731;50.364;8.958;2022-08-25T05:25:14;100201.28;;;19.11;70.34
17230;BME280;8731;50.364;8.958;2022-08-25T05:29:37;100199.41;;;19.09;71.90
17230;BME280;8731;50.364;8.958;2022-08-25T05:34:05;100191.69;;;19.53;72.43
17230;BME280;8731;50.364;8.958;2022-08-25T05:38:28;100195.66;;;20.23;68.91
17230;BME280;8731;50.364;8.958;2022-08-25T05:42:50;100195.56;;;20.85;68.28
17230;BME280;8731;50.364;8.958;2022-08-25T05:47:15;100188.28;;;21.28;68.13
17230;BME280;8731;50.364;8.958;2022-08-25T05:51:38;100188.56;;;21.86;66.36
17230;BME280;8731;50.364;8.958;2022-08-25T05:56:01;100179.41;;;22.68;64.79
17230;BME280;8731;50.364;8.958;2022-08-25T06:00:24;100178.78;;;23.34;62.96
17230;BME280;8731;50.364;8.958;2022-08-25T06:04:47;100167.00;;;24.06;61.19
17230;BME280;8731;50.364;8.958;2022-08-25T06:09:10;100165.09;;;24.46;60.34
17230;BME280;8731;50.364;8.958;2022-08-25T06:13:32;100154.56;;;25.15;58.51
17230;BME280;8731;50.364;8.958;2022-08-25T06:17:54;100157.41;;;25.75;56.85
17230;BME280;8731;50.364;8.958;2022-08-25T06:22:19;100153.28;;;26.39;55.86
17230;BME280;8731;50.364;8.958;2022-08-25T06:26:41;100142.88;;;26.72;54.61
17230;BME280;8731;50.364;8.958;2022-08-25T06:31:04;100142.88;;;27.38;54.50
17230;BME280;8731;50.364;8.958;2022-08-25T06:35:27;100143.72;;;28.10;52.58
17230;BME280;8731;50.364;8.958;2022-08-25T06:39:51;100146.41;;;28.53;51.77
17230;BME280;8731;50.364;8.958;2022-08-25T06:44:13;100138.44;;;28.92;49.61
17230;BME280;8731;50.364;8.958;2022-08-25T06:48:35;100138.78;;;29.61;49.68
17230;BME280;8731;50.364;8.958;2022-08-25T06:52:58;100135.72;;;29.93;47.74
17230;BME280;8731;50.364;8.958;2022-08-25T06:57:21;100138.91;;;30.31;48.33
17230;BME280;8731;50.364;8.958;2022-08-25T07:01:44;100126.69;;;31.18;47.65
17230;BME280;8731;50.364;8.958;2022-08-25T07:06:06;100122.59;;;31.49;46.23
17230;BME280;8731;50.364;8.958;2022-08-25T07:10:29;100120.69;;;31.30;46.48
17230;BME280;8731;50.364;8.958;2022-08-25T07:14:53;100114.91;;;31.81;45.25
17230;BME280;8731;50.364;8.958;2022-08-25T07:19:15;100126.53;;;32.18;43.48
17230;BME280;8731;50.364;8.958;2022-08-25T07:23:40;100130.19;;;32.58;43.55
17230;BME280;8731;50.364;8.958;2022-08-25T07:28:03;100127.69;;;33.10;42.53
17230;BME280;8731;50.364;8.958;2022-08-25T07:32:27;100126.81;;;33.23;41.93
17230;BME280;8731;50.364;8.958;2022-08-25T07:36:49;100121.53;;;32.97;42.59
17230;BME280;8731;50.364;8.958;2022-08-25T07:41:11;100121.50;;;33.72;41.26
17230;BME280;8731;50.364;8.958;2022-08-25T07:45:35;100124.09;;;34.03;40.68
17230;BME280;8731;50.364;8.958;2022-08-25T07:50:01;100132.81;;;32.51;43.07
17230;BME280;8731;50.364;8.958;2022-08-25T07:54:23;100122.41;;;33.03;40.64
17230;BME280;8731;50.364;8.958;2022-08-25T07:58:47;100117.91;;;34.04;40.83
17230;BME280;8731;50.364;8.958;2022-08-25T08:03:09;100125.00;;;32.84;40.80
17230;BME280;8731;50.364;8.958;2022-08-25T08:07:33;100129.47;;;33.17;43.42
17230;BME280;8731;50.364;8.958;2022-08-25T08:11:56;100130.00;;;32.11;41.72
17230;BME280;8731;50.364;8.958;2022-08-25T08:16:20;100125.59;;;32.15;41.67
17230;BME280;8731;50.364;8.958;2022-08-25T08:20:44;100116.94;;;32.39;41.15
17230;BME280;8731;50.364;8.958;2022-08-25T08:25:10;100112.63;;;34.11;40.65
17230;BME280;8731;50.364;8.958;2022-08-25T08:29:33;100114.50;;;33.33;42.89
17230;BME280;8731;50.364;8.958;2022-08-25T08:33:56;100111.88;;;33.33;42.09
17230;BME280;8731;50.364;8.958;2022-08-25T08:38:19;100098.44;;;34.28;39.34
17230;BME280;8731;50.364;8.958;2022-08-25T08:42:52;100107.47;;;33.32;40.46
17230;BME280;8731;50.364;8.958;2022-08-25T08:47:28;100105.53;;;32.35;40.33
17230;BME280;8731;50.364;8.958;2022-08-25T08:52:03;100092.34;;;32.32;41.15
17230;BME280;8731;50.364;8.958;2022-08-25T08:56:30;100090.59;;;32.37;39.87
17230;BME280;8731;50.364;8.958;2022-08-25T09:00:59;100096.91;;;32.95;40.15
17230;BME280;8731;50.364;8.958;2022-08-25T09:05:26;100088.03;;;33.76;38.28
17230;BME280;8731;50.364;8.958;2022-08-25T09:09:49;100073.63;;;34.56;37.74
17230;BME280;8731;50.364;8.958;2022-08-25T09:14:24;100097.66;;;32.43;39.10
17230;BME280;8731;50.364;8.958;2022-08-25T09:19:12;100089.75;;;32.58;38.25
17230;BME280;8731;50.364;8.958;2022-08-25T09:23:55;100077.53;;;33.28;37.06
17230;BME280;8731;50.364;8.958;2022-08-25T09:28:31;100068.59;;;34.01;36.96
17230;BME280;8731;50.364;8.958;2022-08-25T09:32:59;100067.69;;;34.11;38.67
17230;BME280;8731;50.364;8.958;2022-08-25T09:37:24;100065.03;;;34.11;38.10
17230;BME280;8731;50.364;8.958;2022-08-25T09:41:50;100048.75;;;34.82;35.85
17230;BME280;8731;50.364;8.958;2022-08-25T09:46:16;100048.47;;;32.75;38.32
17230;BME280;8731;50.364;8.958;2022-08-25T09:50:45;100045.28;;;34.72;36.34
17230;BME280;8731;50.364;8.958;2022-08-25T09:55:31;100032.38;;;34.18;37.34
17230;BME280;8731;50.364;8.958;2022-08-25T09:59:55;100023.53;;;34.26;36.82
17230;BME280;8731;50.364;8.958;2022-08-25T10:04:24;100013.72;;;35.52;36.11
17230;BME280;8731;50.364;8.958;2022-08-25T10:08:53;100007.69;;;34.20;36.88
17230;BME280;8731;50.364;8.958;2022-08-25T10:13:20;99997.81;;;35.53;34.82
17230;BME280;8731;50.364;8.958;2022-08-25T10:17:53;100000.78;;;33.96;36.77
17230;BME280;8731;50.364;8.958;2022-08-25T10:22:21;99996.56;;;33.43;37.16
17230;BME280;8731;50.364;8.958;2022-08-25T10:26:55;99977.09;;;35.06;36.89
17230;BME280;8731;50.364;8.958;2022-08-25T10:31:32;99965.00;;;35.62;36.41
17230;BME280;8731;50.364;8.958;2022-08-25T10:36:03;99960.31;;;33.91;35.00
17230;BME280;8731;50.364;8.958;2022-08-25T10:40:37;99951.53;;;33.87;37.49
17230;BME280;8731;50.364;8.958;2022-08-25T10:45:19;99956.25;;;34.66;37.19
17230;BME280;8731;50.364;8.958;2022-08-25T10:50:13;99947.59;;;34.47;35.57
17230;BME280;8731;50.364;8.958;2022-08-25T10:54:46;99933.97;;;33.68;35.66
17230;BME280;8731;50.364;8.958;2022-08-25T10:59:28;99932.72;;;35.29;34.33
17230;BME280;8731;50.364;8.958;2022-08-25T11:04:02;99932.09;;;35.06;35.16
17230;BME280;8731;50.364;8.958;2022-08-25T11:08:34;99937.47;;;34.97;35.19
17230;BME280;8731;50.364;8.958;2022-08-25T11:13:02;99926.75;;;35.86;34.07
17230;BME280;8731;50.364;8.958;2022-08-25T11:17:38;99918.28;;;35.56;34.22
17230;BME280;8731;50.364;8.958;2022-08-25T11:22:12;99921.53;;;35.04;33.64
17230;BME280;8731;50.364;8.958;2022-08-25T11:26:46;99922.06;;;36.05;33.54
17230;BME280;8731;50.364;8.958;2022-08-25T11:31:14;99918.13;;;34.92;32.86
17230;BME280;8731;50.364;8.958;2022-08-25T11:35:41;99915.72;;;35.49;31.90
17230;BME280;8731;50.364;8.958;2022-08-25T11:40:25;99915.22;;;34.15;34.17
17230;BME280;8731;50.364;8.958;2022-08-25T11:45:07;99913.63;;;33.79;35.84
17230;BME280;8731;50.364;8.958;2022-08-25T11:49:52;99919.25;;;32.66;36.87
17230;BME280;8731;50.364;8.958;2022-08-25T11:54:22;99911.91;;;33.84;35.32
17230;BME280;8731;50.364;8.958;2022-08-25T11:58:49;99906.81;;;33.27;36.54
17230;BME280;8731;50.364;8.958;2022-08-25T12:03:51;99910.28;;;33.49;36.34
17230;BME280;8731;50.364;8.958;2022-08-25T12:08:47;99913.09;;;32.26;38.21
17230;BME280;8731;50.364;8.958;2022-08-25T12:13:25;99914.84;;;32.59;37.86
17230;BME280;8731;50.364;8.958;2022-08-25T12:18:10;99909.56;;;32.41;38.33
17230;BME280;8731;50.364;8.958;2022-08-25T12:22:53;99901.59;;;33.08;37.19
17230;BME280;8731;50.364;8.958;2022-08-25T12:27:24;99903.41;;;32.96;36.79
17230;BME280;8731;50.364;8.958;2022-08-25T12:31:59;99904.28;;;32.38;38.02
17230;BME280;8731;50.364;8.958;2022-08-25T12:36:33;99905.16;;;32.24;37.68
17230;BME280;8731;50.364;8.958;2022-08-25T12:41:01;99906.06;;;32.45;36.56
17230;BME280;8731;50.364;8.958;2022-08-25T12:45:34;99898.03;;;33.24;36.53
17230;BME280;8731;50.364;8.958;2022-08-25T12:50:25;99889.22;;;33.40;35.07
17230;BME280;8731;50.364;8.958;2022-08-25T12:54:55;99884.81;;;33.38;35.33
17230;BME280;8731;50.364;8.958;2022-08-25T12:59:22;99874.78;;;33.99;34.70
17230;BME280;8731;50.364;8.958;2022-08-25T13:04:24;99873.88;;;34.03;33.65
17230;BME280;8731;50.364;8.958;2022-08-25T13:09:29;99873.00;;;34.01;33.77
17230;BME280;8731;50.364;8.958;2022-08-25T13:14:20;99864.13;;;34.14;33.11
17230;BME280;8731;50.364;8.958;2022-08-25T13:18:48;99864.13;;;34.11;31.11
17230;BME280;8731;50.364;8.958;2022-08-25T13:23:11;99860.72;;;33.97;32.28
17230;BME280;8731;50.364;8.958;2022-08-25T13:27:36;99859.34;;;33.11;33.81
17230;BME280;8731;50.364;8.958;2022-08-25T13:32:04;99852.19;;;33.49;34.27
17230;BME280;8731;50.364;8.958;2022-08-25T13:36:34;99854.22;;;32.22;37.18
17230;BME280;8731;50.364;8.958;2022-08-25T13:41:23;99848.84;;;32.99;36.72
17230;BME280;8731;50.364;8.958;2022-08-25T13:45:46;99848.06;;;32.43;37.54
17230;BME280;8731;50.364;8.958;2022-08-25T13:50:28;99847.16;;;32.81;36.46
17230;BME280;8731;50.364;8.958;2022-08-25T13:54:57;99840.16;;;32.02;38.36
17230;BME280;8731;50.364;8.958;2022-08-25T13:59:23;99840.13;;;32.57;37.06
17230;BME280;8731;50.364;8.958;2022-08-25T14:03:47;99842.78;;;32.02;38.17
17230;BME280;8731;50.364;8.958;2022-08-25T14:08:29;99837.50;;;32.22;37.70
17230;BME280;8731;50.364;8.958;2022-08-25T14:13:06;99829.50;;;31.49;38.26
17230;BME280;8731;50.364;8.958;2022-08-25T14:17:32;99826.09;;;32.33;36.48
17230;BME280;8731;50.364;8.958;2022-08-25T14:21:56;99819.97;;;32.28;37.37
17230;BME280;8731;50.364;8.958;2022-08-25T14:26:22;99820.81;;;32.38;36.34
17230;BME280;8731;50.364;8.958;2022-08-25T14:30:48;99811.09;;;32.61;36.45
17230;BME280;8731;50.364;8.958;2022-08-25T14:35:13;99816.44;;;31.94;36.63
17230;BME280;8731;50.364;8.958;2022-08-25T14:39:37;99797.97;;;32.14;35.53
17230;BME280;8731;50.364;8.958;2022-08-25T14:44:03;99792.72;;;31.99;35.12
17230;BME280;8731;50.364;8.958;2022-08-25T14:48:28;99785.63;;;32.59;34.80
17230;BME280;8731;50.364;8.958;2022-08-25T14:52:53;99778.56;;;32.73;35.55
17230;BME280;8731;50.364;8.958;2022-08-25T14:57:15;99781.22;;;32.67;35.22
17230;BME280;8731;50.364;8.958;2022-08-25T15:01:40;99773.38;;;32.47;35.54
17230;BME280;8731;50.364;8.958;2022-08-25T15:06:04;99766.22;;;32.93;35.50
17230;BME280;8731;50.364;8.958;2022-08-25T15:10:27;99770.75;;;32.15;35.76
17230;BME280;8731;50.364;8.958;2022-08-25T15:14:49;99763.75;;;31.85;36.47
17230;BME280;8731;50.364;8.958;2022-08-25T15:19:14;99772.50;;;31.89;35.64
17230;BME280;8731;50.364;8.958;2022-08-25T15:23:37;99768.13;;;31.88;36.31
17230;BME280;8731;50.364;8.958;2022-08-25T15:28:02;99760.22;;;31.94;35.62
17230;BME280;8731;50.364;8.958;2022-08-25T15:32:24;99764.53;;;31.35;37.38
17230;BME280;8731;50.364;8.958;2022-08-25T15:36:48;99764.56;;;31.69;36.91
17230;BME280;8731;50.364;8.958;2022-08-25T15:41:11;99758.44;;;31.59;36.81
17230;BME280;8731;50.364;8.958;2022-08-25T15:45:33;99758.47;;;31.81;36.24
17230;BME280;8731;50.364;8.958;2022-08-25T15:50:01;99761.03;;;31.38;36.45
17230;BME280;8731;50.364;8.958;2022-08-25T15:54:28;99752.28;;;31.48;36.71
17230;BME280;8731;50.364;8.958;2022-08-25T15:58:51;99743.50;;;31.66;35.77
17230;BME280;8731;50.364;8.958;2022-08-25T16:03:14;99744.38;;;31.51;36.37
17230;BME280;8731;50.364;8.958;2022-08-25T16:07:37;99738.28;;;31.72;35.83
17230;BME280;8731;50.364;8.958;2022-08-25T16:12:01;99739.09;;;31.46;35.12
17230;BME280;8731;50.364;8.958;2022-08-25T16:16:26;99747.00;;;31.37;35.12
17230;BME280;8731;50.364;8.958;2022-08-25T16:20:49;99745.19;;;31.17;35.53
17230;BME280;8731;50.364;8.958;2022-08-25T16:25:13;99740.88;;;31.60;35.63
17230;BME280;8731;50.364;8.958;2022-08-25T16:29:38;99743.31;;;30.88;36.86
17230;BME280;8731;50.364;8.958;2022-08-25T16:34:01;99741.63;;;31.14;35.83
17230;BME280;8731;50.364;8.958;2022-08-25T16:38:24;99735.50;;;31.15;35.90
17230;BME280;8731;50.364;8.958;2022-08-25T16:42:46;99730.22;;;31.00;36.43
17230;BME280;8731;50.364;8.958;2022-08-25T16:47:11;99727.56;;;30.97;36.79
17230;BME280;8731;50.364;8.958;2022-08-25T16:51:35;99723.16;;;30.85;36.52
17230;BME280;8731;50.364;8.958;2022-08-25T16:55:59;99724.91;;;30.82;37.45
17230;BME280;8731;50.364;8.958;2022-08-25T17:00:24;99724.91;;;30.82;36.99
17230;BME280;8731;50.364;8.958;2022-08-25T17:04:49;99722.34;;;31.06;36.74
17230;BME280;8731;50.364;8.958;2022-08-25T17:09:12;99722.34;;;31.12;36.28
17230;BME280;8731;50.364;8.958;2022-08-25T17:13:37;99714.44;;;31.03;37.28
17230;BME280;8731;50.364;8.958;2022-08-25T17:18:00;99714.41;;;30.99;37.03
17230;BME280;8731;50.364;8.958;2022-08-25T17:22:24;99717.91;;;30.96;36.59
17230;BME280;8731;50.364;8.958;2022-08-25T17:26:46;99711.75;;;30.90;37.07
17230;BME280;8731;50.364;8.958;2022-08-25T17:31:11;99710.88;;;30.92;37.38
17230;BME280;8731;50.364;8.958;2022-08-25T17:35:37;99713.53;;;30.98;37.46
17230;BME280;8731;50.364;8.958;2022-08-25T17:40:03;99714.41;;;30.99;37.31
17230;BME280;8731;50.364;8.958;2022-08-25T17:44:26;99716.13;;;30.88;37.71
17230;BME280;8731;50.364;8.958;2022-08-25T17:48:48;99713.50;;;30.89;38.29
17230;BME280;8731;50.364;8.958;2022-08-25T17:53:11;99712.63;;;30.79;38.02
17230;BME280;8731;50.364;8.958;2022-08-25T17:57:35;99717.00;;;30.85;38.23
17230;BME280;8731;50.364;8.958;2022-08-25T18:01:58;99717.00;;;30.77;38.11
17230;BME280;8731;50.364;8.958;2022-08-25T18:06:22;99715.19;;;30.66;38.27
17230;BME280;8731;50.364;8.958;2022-08-25T18:10:45;99718.53;;;30.43;38.88
17230;BME280;8731;50.364;8.958;2022-08-25T18:15:10;99723.75;;;30.34;38.43
17230;BME280;8731;50.364;8.958;2022-08-25T18:19:33;99721.00;;;30.16;38.55
17230;BME280;8731;50.364;8.958;2022-08-25T18:23:57;99727.97;;;30.06;39.00
17230;BME280;8731;50.364;8.958;2022-08-25T18:28:21;99719.13;;;30.01;39.55
17230;BME280;8731;50.364;8.958;2022-08-25T18:32:46;99721.53;;;29.72;40.09
17230;BME280;8731;50.364;8.958;2022-08-25T18:37:09;99731.53;;;29.23;41.63
17230;BME280;8731;50.364;8.958;2022-08-25T18:41:49;99732.47;;;29.28;41.35
17230;BME280;8731;50.364;8.958;2022-08-25T18:46:11;99731.50;;;29.20;41.84
17230;BME280;8731;50.364;8.958;2022-08-25T18:50:38;99733.22;;;29.15;41.36
17230;BME280;8731;50.364;8.958;2022-08-25T18:55:01;99736.47;;;28.93;41.42
17230;BME280;8731;50.364;8.958;2022-08-25T18:59:24;99735.38;;;28.79;41.78
17230;BME280;8731;50.364;8.958;2022-08-25T19:03:46;99739.50;;;28.61;42.17
17230;BME280;8731;50.364;8.958;2022-08-25T19:08:12;99742.91;;;28.54;42.56
17230;BME280;8731;50.364;8.958;2022-08-25T19:12:35;99746.25;;;28.42;42.50
17230;BME280;8731;50.364;8.958;2022-08-25T19:16:58;99753.50;;;28.04;43.49
17230;BME280;8731;50.364;8.958;2022-08-25T19:21:20;99757.16;;;27.63;43.78
17230;BME280;8731;50.364;8.958;2022-08-25T19:25:44;99757.31;;;27.69;43.71
17230;BME280;8731;50.364;8.958;2022-08-25T19:30:08;99760.53;;;27.57;44.22
17230;BME280;8731;50.364;8.958;2022-08-25T19:34:35;99749.13;;;27.52;43.68
17230;BME280;8731;50.364;8.958;2022-08-25T19:39:02;99756.63;;;27.34;43.92
17230;BME280;8731;50.364;8.958;2022-08-25T19:43:27;99755.09;;;27.00;44.92
17230;BME280;8731;50.364;8.958;2022-08-25T19:47:50;99750.75;;;27.00;44.79
17230;BME280;8731;50.364;8.958;2022-08-25T19:52:13;99753.03;;;26.86;45.08
17230;BME280;8731;50.364;8.958;2022-08-25T19:56:44;99755.72;;;26.49;45.50
17230;BME280;8731;50.364;8.958;2022-08-25T20:01:08;99761.72;;;26.45;45.28
17230;BME280;8731;50.364;8.958;2022-08-25T20:05:30;99764.03;;;26.33;45.83
17230;BME280;8731;50.364;8.958;2022-08-25T20:09:54;99761.44;;;26.33;45.62
17230;BME280;8731;50.364;8.958;2022-08-25T20:14:17;99755.69;;;26.10;46.14
17230;BME280;8731;50.364;8.958;2022-08-25T20:18:41;99761.59;;;25.68;48.83
17230;BME280;8731;50.364;8.958;2022-08-25T20:23:03;99760.94;;;25.77;47.76
17230;BME280;8731;50.364;8.958;2022-08-25T20:27:51;99757.44;;;25.76;47.89
17230;BME280;8731;50.364;8.958;2022-08-25T20:32:15;99768.03;;;25.49;49.16
17230;BME280;8731;50.364;8.958;2022-08-25T20:36:40;99775.31;;;25.29;49.47
17230;BME280;8731;50.364;8.958;2022-08-25T20:41:07;99769.56;;;25.41;49.08
17230;BME280;8731;50.364;8.958;2022-08-25T20:45:30;99765.16;;;25.38;49.34
17230;BME280;8731;50.364;8.958;2022-08-25T20:49:52;99772.34;;;25.16;50.14
17230;BME280;8731;50.364;8.958;2022-08-25T20:54:16;99763.69;;;25.17;50.23
17230;BME280;8731;50.364;8.958;2022-08-25T20:58:39;99764.03;;;24.99;50.60
17230;BME280;8731;50.364;8.958;2022-08-25T21:03:02;99765.97;;;25.06;49.94
17230;BME280;8731;50.364;8.958;2022-08-25T21:07:25;99753.41;;;24.93;50.36
17230;BME280;8731;50.364;8.958;2022-08-25T21:11:51;99771.31;;;24.82;49.92
17230;BME280;8731;50.364;8.958;2022-08-25T21:16:14;99768.44;;;24.71;50.80
17230;BME280;8731;50.364;8.958;2022-08-25T21:20:37;99768.47;;;24.44;52.44
17230;BME280;8731;50.364;8.958;2022-08-25T21:24:59;99766.06;;;24.51;52.13
17230;BME280;8731;50.364;8.958;2022-08-25T21:29:25;99763.53;;;24.54;51.48
17230;BME280;8731;50.364;8.958;2022-08-25T21:33:51;99769.72;;;24.57;51.74
17230;BME280;8731;50.364;8.958;2022-08-25T21:38:13;99766.09;;;24.52;52.01
17230;BME280;8731;50.364;8.958;2022-08-25T21:42:36;99774.09;;;24.30;52.50
17230;BME280;8731;50.364;8.958;2022-08-25T21:46:59;99768.53;;;24.19;52.86
17230;BME280;8731;50.364;8.958;2022-08-25T21:51:23;99768.25;;;24.11;53.05
